sensor_id;sensor_type;location;lat;lon;timestamp;temperature;humidity
17849;DHT22;9050;48.746;9.232;2023-03-25T00:02:18;8.60;99.90
17849;DHT22;9050;48.746;9.232;2023-03-25T00:04:48;8.60;99.90
17849;DHT22;9050;48.746;9.232;2023-03-25T00:07:18;8.50;99.90
17849;DHT22;9050;48.746;9.232;2023-03-25T00:09:44;8.30;99.90
17849;DHT22;9050;48.746;9.232;2023-03-25T00:12:12;8.20;99.90
17849;DHT22;9050;48.746;9.232;2023-03-25T00:14:39;8.00;99.90
17849;DHT22;9050;48.746;9.232;2023-03-25T00:17:06;8.00;99.90
17849;DHT22;9050;48.746;9.232;2023-03-25T00:19:35;8.00;99.90
17849;DHT22;9050;48.746;9.232;2023-03-25T00:22:01;8.00;99.90
17849;DHT22;9050;48.746;9.232;2023-03-25T00:24:30;7.90;99.90
17849;DHT22;9050;48.746;9.232;2023-03-25T00:26:56;7.90;99.90
17849;DHT22;9050;48.746;9.232;2023-03-25T00:29:23;7.80;99.90
17849;DHT22;9050;48.746;9.232;2023-03-25T00:31:50;7.70;99.90
17849;DHT22;9050;48.746;9.232;2023-03-25T00:34:17;7.70;99.90
17849;DHT22;9050;48.746;9.232;2023-03-25T00:36:44;7.70;99.90
17849;DHT22;9050;48.746;9.232;2023-03-25T00:39:11;7.70;99.90
17849;DHT22;9050;48.746;9.232;2023-03-25T00:41:39;7.70;99.90
17849;DHT22;9050;48.746;9.232;2023-03-25T00:44:08;7.70;99.90
17849;DHT22;9050;48.746;9.232;2023-03-25T00:46:37;7.70;99.90
17849;DHT22;9050;48.746;9.232;2023-03-25T00:49:03;7.60;99.90
17849;DHT22;9050;48.746;9.232;2023-03-25T00:51:30;7.50;99.90
17849;DHT22;9050;48.746;9.232;2023-03-25T00:53:58;7.40;99.90
17849;DHT22;9050;48.746;9.232;2023-03-25T00:56:26;7.30;99.90
17849;DHT22;9050;48.746;9.232;2023-03-25T00:58:54;7.20;99.90
17849;DHT22;9050;48.746;9.232;2023-03-25T01:01:23;7.20;99.90
17849;DHT22;9050;48.746;9.232;2023-03-25T01:03:52;7.20;99.90
17849;DHT22;9050;48.746;9.232;2023-03-25T01:06:24;7.20;99.90
17849;DHT22;9050;48.746;9.232;2023-03-25T01:08:54;7.20;99.90
17849;DHT22;9050;48.746;9.232;2023-03-25T01:11:23;7.10;99.90
17849;DHT22;9050;48.746;9.232;2023-03-25T01:13:54;7.10;99.90
17849;DHT22;9050;48.746;9.232;2023-03-25T01:16:21;7.10;99.90
17849;DHT22;9050;48.746;9.232;2023-03-25T01:18:48;7.10;99.90
17849;DHT22;9050;48.746;9.232;2023-03-25T01:21:15;7.00;99.90
17849;DHT22;9050;48.746;9.232;2023-03-25T01:23:43;7.00;99.90
17849;DHT22;9050;48.746;9.232;2023-03-25T01:26:10;7.00;99.90
17849;DHT22;9050;48.746;9.232;2023-03-25T01:28:38;6.90;99.90
17849;DHT22;9050;48.746;9.232;2023-03-25T01:31:08;6.90;99.90
17849;DHT22;9050;48.746;9.232;2023-03-25T01:33:35;6.90;99.90
17849;DHT22;9050;48.746;9.232;2023-03-25T01:36:03;6.90;99.90
17849;DHT22;9050;48.746;9.232;2023-03-25T01:38:33;6.90;99.90
17849;DHT22;9050;48.746;9.232;2023-03-25T01:41:01;6.80;99.90
17849;DHT22;9050;48.746;9.232;2023-03-25T01:43:29;6.80;99.90
17849;DHT22;9050;48.746;9.232;2023-03-25T01:45:56;6.90;99.90
17849;DHT22;9050;48.746;9.232;2023-03-25T01:48:27;6.90;99.90
17849;DHT22;9050;48.746;9.232;2023-03-25T01:51:03;6.90;99.90
17849;DHT22;9050;48.746;9.232;2023-03-25T01:53:32;7.00;99.90
17849;DHT22;9050;48.746;9.232;2023-03-25T01:56:01;7.00;99.90
17849;DHT22;9050;48.746;9.232;2023-03-25T01:58:31;7.10;99.90
17849;DHT22;9050;48.746;9.232;2023-03-25T02:00:58;7.10;99.90
17849;DHT22;9050;48.746;9.232;2023-03-25T02:03:29;7.10;99.90
17849;DHT22;9050;48.746;9.232;2023-03-25T02:06:03;7.00;99.90
17849;DHT22;9050;48.746;9.232;2023-03-25T02:08:33;7.00;99.90
17849;DHT22;9050;48.746;9.232;2023-03-25T02:11:03;7.00;99.90
17849;DHT22;9050;48.746;9.232;2023-03-25T02:13:32;6.90;99.90
17849;DHT22;9050;48.746;9.232;2023-03-25T02:16:22;7.00;99.90
17849;DHT22;9050;48.746;9.232;2023-03-25T02:19:00;7.00;99.90
17849;DHT22;9050;48.746;9.232;2023-03-25T02:24:59;6.90;99.90
17849;DHT22;9050;48.746;9.232;2023-03-25T02:27:39;7.00;99.90
17849;DHT22;9050;48.746;9.232;2023-03-25T02:30:31;7.00;99.90
17849;DHT22;9050;48.746;9.232;2023-03-25T02:33:32;7.00;99.90
17849;DHT22;9050;48.746;9.232;2023-03-25T02:39:10;7.10;99.90
17849;DHT22;9050;48.746;9.232;2023-03-25T02:41:42;7.10;99.90
17849;DHT22;9050;48.746;9.232;2023-03-25T02:44:13;7.20;99.90
17849;DHT22;9050;48.746;9.232;2023-03-25T02:46:43;7.20;99.90
17849;DHT22;9050;48.746;9.232;2023-03-25T02:49:14;7.30;99.90
17849;DHT22;9050;48.746;9.232;2023-03-25T02:51:47;7.40;99.90
17849;DHT22;9050;48.746;9.232;2023-03-25T02:54:17;7.40;99.90
17849;DHT22;9050;48.746;9.232;2023-03-25T02:56:46;7.40;99.90
17849;DHT22;9050;48.746;9.232;2023-03-25T02:59:14;7.40;99.90
17849;DHT22;9050;48.746;9.232;2023-03-25T03:01:43;7.40;99.90
17849;DHT22;9050;48.746;9.232;2023-03-25T03:04:14;7.40;99.90
17849;DHT22;9050;48.746;9.232;2023-03-25T03:06:42;7.40;99.90
17849;DHT22;9050;48.746;9.232;2023-03-25T03:09:22;7.40;99.90
17849;DHT22;9050;48.746;9.232;2023-03-25T03:11:57;7.40;99.90
17849;DHT22;9050;48.746;9.232;2023-03-25T03:14:52;7.30;99.90
17849;DHT22;9050;48.746;9.232;2023-03-25T03:17:25;7.20;99.90
17849;DHT22;9050;48.746;9.232;2023-03-25T03:19:54;7.30;99.90
17849;DHT22;9050;48.746;9.232;2023-03-25T03:22:35;7.20;99.90
17849;DHT22;9050;48.746;9.232;2023-03-25T03:25:13;7.20;99.90
17849;DHT22;9050;48.746;9.232;2023-03-25T03:27:46;7.10;99.90
17849;DHT22;9050;48.746;9.232;2023-03-25T03:30:19;7.10;99.90
17849;DHT22;9050;48.746;9.232;2023-03-25T03:32:51;7.00;99.90
17849;DHT22;9050;48.746;9.232;2023-03-25T03:35:23;6.90;99.90
17849;DHT22;9050;48.746;9.232;2023-03-25T03:37:55;6.90;99.90
17849;DHT22;9050;48.746;9.232;2023-03-25T03:40:27;6.90;99.90
17849;DHT22;9050;48.746;9.232;2023-03-25T03:42:57;6.80;99.90
17849;DHT22;9050;48.746;9.232;2023-03-25T03:45:29;6.70;99.90
17849;DHT22;9050;48.746;9.232;2023-03-25T03:47:58;6.70;99.90
17849;DHT22;9050;48.746;9.232;2023-03-25T03:50:31;6.60;99.90
17849;DHT22;9050;48.746;9.232;2023-03-25T03:53:03;6.60;99.90
17849;DHT22;9050;48.746;9.232;2023-03-25T03:55:36;6.60;99.90
17849;DHT22;9050;48.746;9.232;2023-03-25T03:58:08;6.50;99.90
17849;DHT22;9050;48.746;9.232;2023-03-25T04:00:44;6.50;99.90
17849;DHT22;9050;48.746;9.232;2023-03-25T04:03:17;6.40;99.90
17849;DHT22;9050;48.746;9.232;2023-03-25T04:05:58;6.40;99.90
17849;DHT22;9050;48.746;9.232;2023-03-25T04:08:29;6.30;99.90
17849;DHT22;9050;48.746;9.232;2023-03-25T04:11:01;6.30;99.90
17849;DHT22;9050;48.746;9.232;2023-03-25T04:13:34;6.20;99.90
17849;DHT22;9050;48.746;9.232;2023-03-25T04:16:02;6.20;99.90
17849;DHT22;9050;48.746;9.232;2023-03-25T04:18:29;6.20;99.90
17849;DHT22;9050;48.746;9.232;2023-03-25T04:20:58;6.20;99.90
17849;DHT22;9050;48.746;9.232;2023-03-25T04:23:25;6.10;99.90
17849;DHT22;9050;48.746;9.232;2023-03-25T04:25:55;6.10;99.90
17849;DHT22;9050;48.746;9.232;2023-03-25T04:28:23;6.10;99.90
17849;DHT22;9050;48.746;9.232;2023-03-25T04:30:50;6.10;99.90
17849;DHT22;9050;48.746;9.232;2023-03-25T04:33:20;6.00;99.90
17849;DHT22;9050;48.746;9.232;2023-03-25T04:35:47;5.90;99.90
17849;DHT22;9050;48.746;9.232;2023-03-25T04:38:15;5.90;99.90
17849;DHT22;9050;48.746;9.232;2023-03-25T04:40:42;5.90;99.90
17849;DHT22;9050;48.746;9.232;2023-03-25T04:43:11;5.80;99.90
17849;DHT22;9050;48.746;9.232;2023-03-25T04:45:40;5.80;99.90
17849;DHT22;9050;48.746;9.232;2023-03-25T04:48:19;5.80;99.90
17849;DHT22;9050;48.746;9.232;2023-03-25T04:50:46;5.70;99.90
17849;DHT22;9050;48.746;9.232;2023-03-25T04:53:16;5.60;99.90
17849;DHT22;9050;48.746;9.232;2023-03-25T04:55:43;5.60;99.90
17849;DHT22;9050;48.746;9.232;2023-03-25T04:58:12;5.50;99.90
17849;DHT22;9050;48.746;9.232;2023-03-25T05:00:41;5.50;99.90
17849;DHT22;9050;48.746;9.232;2023-03-25T05:03:10;5.50;99.90
17849;DHT22;9050;48.746;9.232;2023-03-25T05:05:37;5.40;99.90
17849;DHT22;9050;48.746;9.232;2023-03-25T05:08:04;5.40;99.90
17849;DHT22;9050;48.746;9.232;2023-03-25T05:10:33;5.40;99.90
17849;DHT22;9050;48.746;9.232;2023-03-25T05:13:02;5.40;99.90
17849;DHT22;9050;48.746;9.232;2023-03-25T05:15:30;5.50;99.90
17849;DHT22;9050;48.746;9.232;2023-03-25T05:18:01;5.40;99.90
17849;DHT22;9050;48.746;9.232;2023-03-25T05:20:28;5.50;99.90
17849;DHT22;9050;48.746;9.232;2023-03-25T05:22:55;5.60;99.90
17849;DHT22;9050;48.746;9.232;2023-03-25T05:25:22;5.70;99.90
17849;DHT22;9050;48.746;9.232;2023-03-25T05:27:48;5.80;99.90
17849;DHT22;9050;48.746;9.232;2023-03-25T05:30:15;5.90;99.90
17849;DHT22;9050;48.746;9.232;2023-03-25T05:32:42;6.00;99.90
17849;DHT22;9050;48.746;9.232;2023-03-25T05:35:16;6.10;99.90
17849;DHT22;9050;48.746;9.232;2023-03-25T05:37:45;6.20;99.90
17849;DHT22;9050;48.746;9.232;2023-03-25T05:40:14;6.30;99.90
17849;DHT22;9050;48.746;9.232;2023-03-25T05:42:41;6.40;99.90
17849;DHT22;9050;48.746;9.232;2023-03-25T05:45:11;6.50;99.90
17849;DHT22;9050;48.746;9.232;2023-03-25T05:47:38;6.50;99.90
17849;DHT22;9050;48.746;9.232;2023-03-25T05:50:06;6.60;99.90
17849;DHT22;9050;48.746;9.232;2023-03-25T05:52:36;6.70;99.90
17849;DHT22;9050;48.746;9.232;2023-03-25T05:55:08;6.70;99.90
17849;DHT22;9050;48.746;9.232;2023-03-25T05:57:35;6.80;99.90
17849;DHT22;9050;48.746;9.232;2023-03-25T06:00:03;6.80;99.90
17849;DHT22;9050;48.746;9.232;2023-03-25T06:02:33;6.70;99.90
17849;DHT22;9050;48.746;9.232;2023-03-25T06:05:00;6.70;99.90
17849;DHT22;9050;48.746;9.232;2023-03-25T06:07:26;6.70;99.90
17849;DHT22;9050;48.746;9.232;2023-03-25T06:09:55;6.70;99.90
17849;DHT22;9050;48.746;9.232;2023-03-25T06:12:22;6.80;99.90
17849;DHT22;9050;48.746;9.232;2023-03-25T06:14:52;6.90;99.90
17849;DHT22;9050;48.746;9.232;2023-03-25T06:17:20;6.90;99.90
17849;DHT22;9050;48.746;9.232;2023-03-25T06:19:47;6.90;99.90
17849;DHT22;9050;48.746;9.232;2023-03-25T06:22:14;6.90;99.90
17849;DHT22;9050;48.746;9.232;2023-03-25T06:24:41;7.00;99.90
17849;DHT22;9050;48.746;9.232;2023-03-25T06:27:12;7.10;99.90
17849;DHT22;9050;48.746;9.232;2023-03-25T06:29:40;7.10;99.90
17849;DHT22;9050;48.746;9.232;2023-03-25T06:32:08;7.10;99.90
17849;DHT22;9050;48.746;9.232;2023-03-25T06:34:35;7.40;99.90
17849;DHT22;9050;48.746;9.232;2023-03-25T06:37:02;7.60;99.90
17849;DHT22;9050;48.746;9.232;2023-03-25T06:39:29;8.30;99.90
17849;DHT22;9050;48.746;9.232;2023-03-25T06:41:56;8.50;99.90
17849;DHT22;9050;48.746;9.232;2023-03-25T06:44:25;8.60;99.90
17849;DHT22;9050;48.746;9.232;2023-03-25T06:46:53;8.80;99.90
17849;DHT22;9050;48.746;9.232;2023-03-25T06:49:19;8.80;99.90
17849;DHT22;9050;48.746;9.232;2023-03-25T06:51:46;9.10;99.90
17849;DHT22;9050;48.746;9.232;2023-03-25T06:54:14;9.30;99.90
17849;DHT22;9050;48.746;9.232;2023-03-25T06:56:41;8.90;99.90
17849;DHT22;9050;48.746;9.232;2023-03-25T06:59:07;9.70;99.90
17849;DHT22;9050;48.746;9.232;2023-03-25T07:01:36;10.90;99.90
17849;DHT22;9050;48.746;9.232;2023-03-25T07:04:02;10.90;99.90
17849;DHT22;9050;48.746;9.232;2023-03-25T07:06:30;10.80;99.90
17849;DHT22;9050;48.746;9.232;2023-03-25T07:08:57;10.60;99.90
17849;DHT22;9050;48.746;9.232;2023-03-25T07:11:25;9.90;99.90
17849;DHT22;9050;48.746;9.232;2023-03-25T07:13:52;9.50;99.90
17849;DHT22;9050;48.746;9.232;2023-03-25T07:16:19;9.30;99.90
17849;DHT22;9050;48.746;9.232;2023-03-25T07:18:48;9.10;99.90
17849;DHT22;9050;48.746;9.232;2023-03-25T07:21:15;8.80;99.90
17849;DHT22;9050;48.746;9.232;2023-03-25T07:23:42;8.70;99.90
17849;DHT22;9050;48.746;9.232;2023-03-25T07:26:09;8.50;99.90
17849;DHT22;9050;48.746;9.232;2023-03-25T07:28:38;8.50;99.90
17849;DHT22;9050;48.746;9.232;2023-03-25T07:31:06;8.50;99.90
17849;DHT22;9050;48.746;9.232;2023-03-25T07:33:33;8.50;99.90
17849;DHT22;9050;48.746;9.232;2023-03-25T07:36:12;8.80;99.90
17849;DHT22;9050;48.746;9.232;2023-03-25T07:38:39;8.70;99.90
17849;DHT22;9050;48.746;9.232;2023-03-25T07:41:07;8.60;99.90
17849;DHT22;9050;48.746;9.232;2023-03-25T07:43:34;8.70;99.90
17849;DHT22;9050;48.746;9.232;2023-03-25T07:46:02;9.30;99.90
17849;DHT22;9050;48.746;9.232;2023-03-25T07:48:29;9.80;99.90
17849;DHT22;9050;48.746;9.232;2023-03-25T07:50:56;9.80;99.90
17849;DHT22;9050;48.746;9.232;2023-03-25T07:53:24;10.50;99.90
17849;DHT22;9050;48.746;9.232;2023-03-25T07:55:51;11.50;99.90
17849;DHT22;9050;48.746;9.232;2023-03-25T07:58:18;12.00;99.90
17849;DHT22;9050;48.746;9.232;2023-03-25T08:00:46;12.20;99.90
17849;DHT22;9050;48.746;9.232;2023-03-25T08:03:14;14.10;99.90
17849;DHT22;9050;48.746;9.232;2023-03-25T08:05:44;15.20;99.90
17849;DHT22;9050;48.746;9.232;2023-03-25T08:08:11;14.90;99.90
17849;DHT22;9050;48.746;9.232;2023-03-25T08:10:40;13.70;99.90
17849;DHT22;9050;48.746;9.232;2023-03-25T08:13:08;12.70;99.90
17849;DHT22;9050;48.746;9.232;2023-03-25T08:15:35;12.60;99.90
17849;DHT22;9050;48.746;9.232;2023-03-25T08:18:02;12.30;99.90
17849;DHT22;9050;48.746;9.232;2023-03-25T08:20:30;11.30;99.90
17849;DHT22;9050;48.746;9.232;2023-03-25T08:22:57;11.20;99.90
17849;DHT22;9050;48.746;9.232;2023-03-25T08:25:24;11.30;99.90
17849;DHT22;9050;48.746;9.232;2023-03-25T08:27:52;11.20;99.90
17849;DHT22;9050;48.746;9.232;2023-03-25T08:30:19;11.20;99.90
17849;DHT22;9050;48.746;9.232;2023-03-25T08:32:46;11.20;99.90
17849;DHT22;9050;48.746;9.232;2023-03-25T08:35:19;10.80;99.90
17849;DHT22;9050;48.746;9.232;2023-03-25T08:37:46;10.30;99.90
17849;DHT22;9050;48.746;9.232;2023-03-25T08:40:13;10.40;99.90
17849;DHT22;9050;48.746;9.232;2023-03-25T08:42:42;10.50;99.90
17849;DHT22;9050;48.746;9.232;2023-03-25T08:45:11;10.60;99.90
17849;DHT22;9050;48.746;9.232;2023-03-25T08:47:40;10.10;99.90
17849;DHT22;9050;48.746;9.232;2023-03-25T08:50:08;9.70;99.90
17849;DHT22;9050;48.746;9.232;2023-03-25T08:52:35;9.40;99.90
17849;DHT22;9050;48.746;9.232;2023-03-25T08:55:02;9.00;99.90
17849;DHT22;9050;48.746;9.232;2023-03-25T08:57:28;9.20;99.90
17849;DHT22;9050;48.746;9.232;2023-03-25T08:59:55;9.50;99.90
17849;DHT22;9050;48.746;9.232;2023-03-25T09:02:24;9.80;99.90
17849;DHT22;9050;48.746;9.232;2023-03-25T09:04:51;9.90;99.90
17849;DHT22;9050;48.746;9.232;2023-03-25T09:07:18;9.90;99.90
17849;DHT22;9050;48.746;9.232;2023-03-25T09:09:47;9.90;99.90
17849;DHT22;9050;48.746;9.232;2023-03-25T09:12:14;9.50;99.90
17849;DHT22;9050;48.746;9.232;2023-03-25T09:14:41;9.40;99.90
17849;DHT22;9050;48.746;9.232;2023-03-25T09:17:08;9.10;99.90
17849;DHT22;9050;48.746;9.232;2023-03-25T09:19:36;8.70;99.90
17849;DHT22;9050;48.746;9.232;2023-03-25T09:22:04;8.60;99.90
17849;DHT22;9050;48.746;9.232;2023-03-25T09:24:31;8.40;99.90
17849;DHT22;9050;48.746;9.232;2023-03-25T09:26:58;8.60;99.90
17849;DHT22;9050;48.746;9.232;2023-03-25T09:29:26;9.10;99.90
17849;DHT22;9050;48.746;9.232;2023-03-25T09:31:53;9.60;99.90
17849;DHT22;9050;48.746;9.232;2023-03-25T09:34:22;9.90;99.90
17849;DHT22;9050;48.746;9.232;2023-03-25T09:36:50;9.70;99.90
17849;DHT22;9050;48.746;9.232;2023-03-25T09:39:17;9.90;99.90
17849;DHT22;9050;48.746;9.232;2023-03-25T09:42:02;10.00;99.90
17849;DHT22;9050;48.746;9.232;2023-03-25T09:44:32;10.20;99.90
17849;DHT22;9050;48.746;9.232;2023-03-25T09:47:02;10.60;99.90
17849;DHT22;9050;48.746;9.232;2023-03-25T09:49:36;10.90;99.90
17849;DHT22;9050;48.746;9.232;2023-03-25T09:52:07;11.40;99.90
17849;DHT22;9050;48.746;9.232;2023-03-25T09:54:49;11.20;99.90
17849;DHT22;9050;48.746;9.232;2023-03-25T09:57:20;11.50;99.90
17849;DHT22;9050;48.746;9.232;2023-03-25T09:59:49;11.20;99.90
17849;DHT22;9050;48.746;9.232;2023-03-25T10:02:26;10.90;99.90
17849;DHT22;9050;48.746;9.232;2023-03-25T10:08:03;11.40;99.90
17849;DHT22;9050;48.746;9.232;2023-03-25T10:10:35;11.80;99.90
17849;DHT22;9050;48.746;9.232;2023-03-25T10:13:10;11.80;99.90
17849;DHT22;9050;48.746;9.232;2023-03-25T10:15:44;12.60;99.90
17849;DHT22;9050;48.746;9.232;2023-03-25T10:18:33;12.50;99.90
17849;DHT22;9050;48.746;9.232;2023-03-25T10:21:08;12.60;99.90
17849;DHT22;9050;48.746;9.232;2023-03-25T10:23:41;12.70;99.90
17849;DHT22;9050;48.746;9.232;2023-03-25T10:26:14;12.30;99.90
17849;DHT22;9050;48.746;9.232;2023-03-25T10:28:47;12.10;99.90
17849;DHT22;9050;48.746;9.232;2023-03-25T10:31:16;12.10;99.90
17849;DHT22;9050;48.746;9.232;2023-03-25T10:33:51;12.20;99.90
17849;DHT22;9050;48.746;9.232;2023-03-25T10:36:19;12.10;99.90
17849;DHT22;9050;48.746;9.232;2023-03-25T10:38:53;12.10;99.90
17849;DHT22;9050;48.746;9.232;2023-03-25T10:41:24;11.90;99.90
17849;DHT22;9050;48.746;9.232;2023-03-25T10:43:52;12.20;99.90
17849;DHT22;9050;48.746;9.232;2023-03-25T10:46:25;12.40;99.90
17849;DHT22;9050;48.746;9.232;2023-03-25T10:48:53;12.70;99.90
17849;DHT22;9050;48.746;9.232;2023-03-25T10:51:24;12.90;99.90
17849;DHT22;9050;48.746;9.232;2023-03-25T10:53:53;12.90;99.90
17849;DHT22;9050;48.746;9.232;2023-03-25T10:56:23;13.20;99.90
17849;DHT22;9050;48.746;9.232;2023-03-25T10:58:52;13.10;99.90
17849;DHT22;9050;48.746;9.232;2023-03-25T11:01:27;13.20;99.90
17849;DHT22;9050;48.746;9.232;2023-03-25T11:03:56;12.80;99.90
17849;DHT22;9050;48.746;9.232;2023-03-25T11:06:27;12.50;99.90
17849;DHT22;9050;48.746;9.232;2023-03-25T11:09:09;12.60;99.90
17849;DHT22;9050;48.746;9.232;2023-03-25T11:11:36;12.00;99.90
17849;DHT22;9050;48.746;9.232;2023-03-25T11:14:03;11.90;99.90
17849;DHT22;9050;48.746;9.232;2023-03-25T11:16:32;12.10;99.90
17849;DHT22;9050;48.746;9.232;2023-03-25T11:19:00;12.30;99.90
17849;DHT22;9050;48.746;9.232;2023-03-25T11:21:30;12.20;99.90
17849;DHT22;9050;48.746;9.232;2023-03-25T11:23:59;12.10;99.90
17849;DHT22;9050;48.746;9.232;2023-03-25T11:26:28;12.00;99.90
17849;DHT22;9050;48.746;9.232;2023-03-25T11:29:01;12.10;99.90
17849;DHT22;9050;48.746;9.232;2023-03-25T11:31:34;12.00;99.90
17849;DHT22;9050;48.746;9.232;2023-03-25T11:34:08;12.10;99.90
17849;DHT22;9050;48.746;9.232;2023-03-25T11:36:47;12.20;99.90
17849;DHT22;9050;48.746;9.232;2023-03-25T11:39:18;12.30;99.90
17849;DHT22;9050;48.746;9.232;2023-03-25T11:41:51;12.30;99.90
17849;DHT22;9050;48.746;9.232;2023-03-25T11:44:22;12.20;99.90
17849;DHT22;9050;48.746;9.232;2023-03-25T11:46:53;12.10;99.90
17849;DHT22;9050;48.746;9.232;2023-03-25T11:49:22;12.20;99.90
17849;DHT22;9050;48.746;9.232;2023-03-25T11:51:56;12.60;99.90
17849;DHT22;9050;48.746;9.232;2023-03-25T11:54:25;12.60;99.90
17849;DHT22;9050;48.746;9.232;2023-03-25T11:56:53;12.60;99.90
17849;DHT22;9050;48.746;9.232;2023-03-25T11:59:24;12.40;99.90
17849;DHT22;9050;48.746;9.232;2023-03-25T12:02:00;12.40;99.90
17849;DHT22;9050;48.746;9.232;2023-03-25T12:04:28;12.50;99.90
17849;DHT22;9050;48.746;9.232;2023-03-25T12:06:59;12.60;99.90
17849;DHT22;9050;48.746;9.232;2023-03-25T12:09:28;12.50;99.90
17849;DHT22;9050;48.746;9.232;2023-03-25T12:12:09;12.60;99.90
17849;DHT22;9050;48.746;9.232;2023-03-25T12:14:45;12.50;99.90
17849;DHT22;9050;48.746;9.232;2023-03-25T12:17:21;12.00;99.90
17849;DHT22;9050;48.746;9.232;2023-03-25T12:19:59;12.20;99.90
17849;DHT22;9050;48.746;9.232;2023-03-25T12:22:43;12.30;99.90
17849;DHT22;9050;48.746;9.232;2023-03-25T12:25:27;12.30;99.90
17849;DHT22;9050;48.746;9.232;2023-03-25T12:28:06;12.50;99.90
17849;DHT22;9050;48.746;9.232;2023-03-25T12:30:46;12.80;99.90
17849;DHT22;9050;48.746;9.232;2023-03-25T12:33:27;12.80;99.90
17849;DHT22;9050;48.746;9.232;2023-03-25T12:36:09;12.60;99.90
17849;DHT22;9050;48.746;9.232;2023-03-25T12:38:48;12.60;99.90
17849;DHT22;9050;48.746;9.232;2023-03-25T12:41:23;12.70;99.90
17849;DHT22;9050;48.746;9.232;2023-03-25T12:44:00;12.70;99.90
17849;DHT22;9050;48.746;9.232;2023-03-25T12:46:48;12.60;99.90
17849;DHT22;9050;48.746;9.232;2023-03-25T12:52:24;12.60;99.90
17849;DHT22;9050;48.746;9.232;2023-03-25T12:55:02;11.60;99.90
17849;DHT22;9050;48.746;9.232;2023-03-25T12:57:46;11.40;99.90
17849;DHT22;9050;48.746;9.232;2023-03-25T13:00:31;11.40;99.90
17849;DHT22;9050;48.746;9.232;2023-03-25T13:05:58;11.60;99.90
17849;DHT22;9050;48.746;9.232;2023-03-25T13:08:29;11.30;99.90
17849;DHT22;9050;48.746;9.232;2023-03-25T13:11:02;11.40;99.90
17849;DHT22;9050;48.746;9.232;2023-03-25T13:13:34;11.10;99.90
17849;DHT22;9050;48.746;9.232;2023-03-25T13:16:05;11.30;99.90
17849;DHT22;9050;48.746;9.232;2023-03-25T13:18:37;11.00;99.90
17849;DHT22;9050;48.746;9.232;2023-03-25T13:21:10;11.10;99.90
17849;DHT22;9050;48.746;9.232;2023-03-25T13:23:38;11.30;99.90
17849;DHT22;9050;48.746;9.232;2023-03-25T13:26:08;11.60;99.90
17849;DHT22;9050;48.746;9.232;2023-03-25T13:28:40;11.50;99.90
17849;DHT22;9050;48.746;9.232;2023-03-25T13:31:13;11.90;99.90
17849;DHT22;9050;48.746;9.232;2023-03-25T13:33:44;11.90;99.90
17849;DHT22;9050;48.746;9.232;2023-03-25T13:36:16;12.00;99.90
17849;DHT22;9050;48.746;9.232;2023-03-25T13:38:48;12.30;99.90
17849;DHT22;9050;48.746;9.232;2023-03-25T13:41:18;12.10;99.90
17849;DHT22;9050;48.746;9.232;2023-03-25T13:43:54;12.20;99.90
17849;DHT22;9050;48.746;9.232;2023-03-25T13:46:28;12.10;99.90
17849;DHT22;9050;48.746;9.232;2023-03-25T13:49:00;11.80;99.90
17849;DHT22;9050;48.746;9.232;2023-03-25T13:51:28;11.60;99.90
17849;DHT22;9050;48.746;9.232;2023-03-25T13:53:59;11.60;99.90
17849;DHT22;9050;48.746;9.232;2023-03-25T13:56:45;11.60;99.90
17849;DHT22;9050;48.746;9.232;2023-03-25T14:02:40;11.80;99.90
17849;DHT22;9050;48.746;9.232;2023-03-25T14:08:44;11.50;99.90
17849;DHT22;9050;48.746;9.232;2023-03-25T14:11:22;11.50;99.90
17849;DHT22;9050;48.746;9.232;2023-03-25T14:13:53;11.50;99.90
17849;DHT22;9050;48.746;9.232;2023-03-25T14:16:24;11.50;99.90
17849;DHT22;9050;48.746;9.232;2023-03-25T14:18:57;11.40;99.90
17849;DHT22;9050;48.746;9.232;2023-03-25T14:21:31;11.50;99.90
17849;DHT22;9050;48.746;9.232;2023-03-25T14:24:02;11.50;99.90
17849;DHT22;9050;48.746;9.232;2023-03-25T14:26:31;11.40;99.90
17849;DHT22;9050;48.746;9.232;2023-03-25T14:29:02;10.70;99.90
17849;DHT22;9050;48.746;9.232;2023-03-25T14:31:33;10.40;99.90
17849;DHT22;9050;48.746;9.232;2023-03-25T14:34:33;10.50;99.90
17849;DHT22;9050;48.746;9.232;2023-03-25T14:37:31;10.40;99.90
17849;DHT22;9050;48.746;9.232;2023-03-25T14:40:01;10.60;99.90
17849;DHT22;9050;48.746;9.232;2023-03-25T14:42:56;10.60;99.90
17849;DHT22;9050;48.746;9.232;2023-03-25T14:45:52;10.60;99.90
17849;DHT22;9050;48.746;9.232;2023-03-25T14:48:29;10.80;99.90
17849;DHT22;9050;48.746;9.232;2023-03-25T14:51:20;10.90;99.90
17849;DHT22;9050;48.746;9.232;2023-03-25T14:53:50;11.20;99.90
17849;DHT22;9050;48.746;9.232;2023-03-25T14:56:21;11.60;99.90
17849;DHT22;9050;48.746;9.232;2023-03-25T14:58:51;11.90;99.90
17849;DHT22;9050;48.746;9.232;2023-03-25T15:01:20;12.00;99.90
17849;DHT22;9050;48.746;9.232;2023-03-25T15:03:48;11.90;99.90
17849;DHT22;9050;48.746;9.232;2023-03-25T15:06:17;11.80;99.90
17849;DHT22;9050;48.746;9.232;2023-03-25T15:08:51;11.80;99.90
17849;DHT22;9050;48.746;9.232;2023-03-25T15:11:25;11.80;99.90
17849;DHT22;9050;48.746;9.232;2023-03-25T15:13:56;12.00;99.90
17849;DHT22;9050;48.746;9.232;2023-03-25T15:16:31;12.30;99.90
17849;DHT22;9050;48.746;9.232;2023-03-25T15:19:09;12.30;99.90
17849;DHT22;9050;48.746;9.232;2023-03-25T15:22:05;12.30;99.90
17849;DHT22;9050;48.746;9.232;2023-03-25T15:24:36;12.30;99.90
17849;DHT22;9050;48.746;9.232;2023-03-25T15:27:09;12.20;99.90
17849;DHT22;9050;48.746;9.232;2023-03-25T15:29:50;12.20;99.90
17849;DHT22;9050;48.746;9.232;2023-03-25T15:32:32;12.30;99.90
17849;DHT22;9050;48.746;9.232;2023-03-25T15:35:32;12.50;99.90
17849;DHT22;9050;48.746;9.232;2023-03-25T15:38:32;12.60;99.90
17849;DHT22;9050;48.746;9.232;2023-03-25T15:41:26;12.50;99.90
17849;DHT22;9050;48.746;9.232;2023-03-25T15:44:10;12.40;99.90
17849;DHT22;9050;48.746;9.232;2023-03-25T15:47:14;12.30;99.90
17849;DHT22;9050;48.746;9.232;2023-03-25T15:50:20;12.20;99.90
17849;DHT22;9050;48.746;9.232;2023-03-25T15:53:01;12.10;99.90
17849;DHT22;9050;48.746;9.232;2023-03-25T15:55:35;12.00;99.90
17849;DHT22;9050;48.746;9.232;2023-03-25T15:58:05;11.90;99.90
17849;DHT22;9050;48.746;9.232;2023-03-25T16:00:36;11.80;99.90
17849;DHT22;9050;48.746;9.232;2023-03-25T16:03:10;11.90;99.90
17849;DHT22;9050;48.746;9.232;2023-03-25T16:05:44;11.90;99.90
17849;DHT22;9050;48.746;9.232;2023-03-25T16:08:18;11.70;99.90
17849;DHT22;9050;48.746;9.232;2023-03-25T16:10:46;11.90;99.90
17849;DHT22;9050;48.746;9.232;2023-03-25T16:13:14;11.90;99.90
17849;DHT22;9050;48.746;9.232;2023-03-25T16:15:48;11.70;99.90
17849;DHT22;9050;48.746;9.232;2023-03-25T16:18:17;11.70;99.90
17849;DHT22;9050;48.746;9.232;2023-03-25T16:20:45;11.70;99.90
17849;DHT22;9050;48.746;9.232;2023-03-25T16:23:18;11.60;99.90
17849;DHT22;9050;48.746;9.232;2023-03-25T16:25:47;11.70;99.90
17849;DHT22;9050;48.746;9.232;2023-03-25T16:28:22;11.80;99.90
17849;DHT22;9050;48.746;9.232;2023-03-25T16:30:50;11.70;99.90
17849;DHT22;9050;48.746;9.232;2023-03-25T16:33:25;11.60;99.90
17849;DHT22;9050;48.746;9.232;2023-03-25T16:35:58;11.40;99.90
17849;DHT22;9050;48.746;9.232;2023-03-25T16:38:26;11.30;99.90
17849;DHT22;9050;48.746;9.232;2023-03-25T16:40:59;11.20;99.90
17849;DHT22;9050;48.746;9.232;2023-03-25T16:43:28;11.20;99.90
17849;DHT22;9050;48.746;9.232;2023-03-25T16:45:57;11.10;99.90